Date,TemperatureHighF,TemperatureAvgF,TemperatureLowF,DewpointHighF,DewpointAvgF,DewpointLowF,HumidityHigh,HumidityAvg,HumidityLow,PressureMaxIn,PressureMinIn,WindSpeedMaxMPH,WindSpeedAvgMPH,GustSpeedMaxMPH,PrecipitationSumIn
2013-1-1,41,38,28,28,23,11,62,54,43,29.69,29.52,24,8,24,0.00
2013-1-2,34,29,24,17,12,8,58,48,42,29.86,29.68,21,5,21,0.00
2013-1-3,34,28,22,16,12,9,62,53,42,29.90,29.76,12,4,12,0.00
2013-1-4,43,34,26,22,18,12,65,52,41,29.78,29.63,24,7,24,0.00
2013-1-5,52,37,28,28,21,16,69,52,36,29.99,29.68,27,6,27,0.00
2013-1-6,51,38,30,35,27,20,82,64,47,29.94,29.69,17,5,17,0.00
2013-1-7,52,39,27,34,26,17,75,59,34,30.13,29.74,13,4,13,0.00
2013-1-8,54,40,28,36,29,18,83,65,38,30.15,30.06,25,6,25,0.00
2013-1-9,50,41,28,39,31,23,85,69,48,30.10,29.81,24,6,24,0.00
2013-1-10,56,45,38,32,29,25,68,54,37,30.27,29.89,25,5,25,0.00
2013-1-11,48,40,35,46,32,24,92,73,61,30.26,29.84,11,3,11,0.27
2013-1-12,48,43,42,46,41,40,93,92,91,29.89,29.78,9,2,9,0.07
2013-1-13,50,47,40,48,44,38,94,92,90,29.89,29.73,17,5,17,0.00
2013-1-14,58,49,37,54,44,32,93,83,62,30.00,29.64,16,4,16,0.05
2013-1-15,40,38,35,33,29,26,83,70,63,30.04,29.92,7,3,7,0.08
2013-1-16,38,36,34,35,32,26,92,85,65,29.95,29.49,11,4,11,0.46
2013-1-17,49,39,34,32,29,20,86,68,48,29.81,29.61,15,4,15,0.01
2013-1-18,36,28,21,20,8,-4,57,44,24,30.22,29.72,11,5,11,0.00
2013-1-19,51,40,21,33,25,8,66,54,39,30.15,29.65,34,11,34,0.00
2013-1-20,59,46,32,33,25,12,64,46,24,29.73,29.39,30,11,30,0.00
2013-1-21,34,30,27,26,13,2,84,52,27,29.82,29.52,14,4,14,0.00
2013-1-22,29,23,15,21,0,-12,77,39,25,29.87,29.50,26,8,26,0.00
2013-1-23,24,17,14,-3,-8,-14,44,31,24,29.94,29.85,18,7,18,0.00
2013-1-24,29,20,14,3,-4,-9,54,36,24,30.10,29.86,21,6,21,0.00
2013-1-25,27,21,16,16,3,-6,76,47,27,30.14,29.80,14,4,14,0.00
2013-1-26,34,24,18,16,8,0,75,49,29,30.09,29.76,13,4,13,0.01
2013-1-27,41,28,20,13,6,2,57,41,24,30.25,30.09,14,3,14,0.00
2013-1-28,36,29,18,32,20,4,85,69,45,30.24,29.75,10,3,10,0.09
2013-1-29,44,37,35,36,32,31,89,82,65,29.93,29.74,9,2,9,0.01
2013-1-30,60,53,38,55,50,35,92,88,79,29.87,29.19,36,14,36,0.00
2013-1-31,61,46,31,55,26,6,88,47,26,29.49,28.84,43,18,43,0.38
2013-2-1,40,30,25,14,6,-2,45,36,27,29.94,29.50,33,8,33,0.00
2013-2-2,34,28,23,19,6,-1,77,41,25,30.03,29.83,24,7,24,0.00
2013-2-3,36,29,24,21,16,12,77,60,43,29.83,29.52,11,3,11,0.01
2013-2-4,35,28,17,19,9,-9,67,46,27,30.21,29.52,24,8,24,0.51
2013-2-5,31,29,26,26,23,5,83,77,38,30.02,29.92,10,4,10,0.00
2013-2-6,42,33,30,29,26,22,84,75,46,30.07,29.90,18,4,18,0.04
2013-2-7,33,29,25,19,7,-3,61,39,26,30.52,30.33,8,4,8,0.00
2013-2-8,36,33,27,30,27,19,88,80,59,30.36,29.52,12,6,12,0.13
2013-2-9,34,23,19,31,16,9,87,76,66,30.27,29.62,0,0,0,0.01
2013-2-10,44,26,16,22,11,2,70,53,24,30.46,30.27,0,0,0,0.08
2013-2-11,48,39,23,46,35,13,94,87,64,30.35,29.65,25,5,25,0.37
2013-2-12,48,42,36,40,28,22,94,61,43,29.95,29.68,26,11,26,0.01
2013-2-13,49,36,28,30,24,20,75,63,44,29.93,29.68,9,2,11,0.00
2013-2-14,52,38,31,37,28,20,87,71,33,30.01,29.70,8,2,8,0.09
2013-2-15,52,41,32,38,33,29,91,76,52,30.01,29.91,24,7,24,0.00
2013-2-16,40,39,30,37,34,20,87,83,56,29.92,29.78,11,6,11,0.00
2013-2-17,37,28,19,23,8,-2,81,45,24,30.00,29.66,28,9,28,0.00
2013-2-18,36,27,19,8,4,-1,47,37,26,30.34,30.00,31,9,31,0.01
2013-2-19,50,40,25,44,30,8,91,69,37,30.34,29.76,26,8,26,0.19
2013-2-20,40,33,26,33,14,6,75,48,30,30.05,29.77,26,12,26,0.00
2013-2-21,42,31,25,20,12,7,55,44,35,30.21,30.03,23,9,24,0.00
2013-2-22,42,33,27,25,20,14,66,59,46,30.50,30.35,12,4,12,0.00
2013-2-23,41,38,35,38,32,24,89,81,65,30.40,29.91,19,6,19,0.14
2013-2-24,44,38,34,39,32,26,93,82,68,30.04,29.82,8,2,8,0.02
2013-2-25,50,40,32,31,26,23,75,60,38,30.36,30.04,8,2,8,0.00
2013-2-26,43,38,36,34,30,26,81,72,60,30.43,30.21,16,4,16,0.00
2013-2-27,37,37,37,30,30,30,75,75,75,30.21,30.21,5,5,14,0.00
2013-2-28,46,42,39,40,36,34,88,82,72,29.96,29.88,12,4,12,0.11
2013-3-1,47,40,36,35,31,26,87,71,47,30.08,29.91,14,4,14,0.02
2013-3-2,48,38,34,28,25,22,68,60,44,30.08,30.01,7,2,7,0.00
2013-3-3,45,34,30,24,22,18,67,60,40,30.04,29.98,9,4,9,0.00
2013-3-4,46,36,30,26,21,17,61,54,41,30.19,30.04,21,6,21,0.00
2013-3-5,51,41,31,30,24,20,66,51,34,30.38,30.19,8,3,8,0.00
2013-3-6,42,39,34,34,31,26,85,74,65,30.36,30.20,23,9,23,0.01
2013-3-7,39,35,33,32,30,28,87,81,73,30.36,30.21,16,7,16,0.12
2013-3-8,38,35,32,32,30,27,88,82,66,30.47,30.27,13,2,13,0.19
2013-3-9,56,42,32,32,26,16,79,54,24,30.68,30.46,8,3,8,0.05
2013-3-10,48,38,30,34,30,24,84,73,56,30.74,30.66,10,3,11,0.00
2013-3-11,55,44,32,44,37,28,89,77,58,30.68,30.46,19,5,19,0.00
2013-3-12,48,48,48,44,44,44,87,87,87,30.47,30.46,10,10,10,0.00
2013-3-13,48,48,48,44,44,44,87,87,87,30.47,30.47,10,10,10,0.00
2013-3-14,40,34,31,18,15,11,56,46,35,30.00,29.92,17,4,17,0.58
2013-3-15,48,38,30,29,16,6,67,42,26,30.02,29.81,25,6,25,0.00
2013-3-16,42,36,32,28,22,10,80,60,35,29.98,29.84,16,3,16,0.01
2013-3-17,34,34,34,28,28,28,79,79,79,29.98,29.98,0,0,4,0.01
2013-3-21,41,34,29,29,24,20,84,66,54,29.93,29.73,5,2,5,0.00
2013-3-22,44,36,29,22,18,12,57,47,33,29.93,29.76,17,9,17,0.00
2013-3-23,48,40,34,24,21,18,57,48,37,29.98,29.85,21,10,21,0.00
2013-3-24,53,41,34,27,21,17,61,46,31,30.00,29.81,13,4,13,0.00
2013-3-25,41,38,35,31,29,24,83,69,59,29.83,29.52,13,6,13,0.02
2013-3-26,54,43,36,32,28,25,75,58,35,29.92,29.63,9,3,9,0.00
2013-3-27,55,45,35,31,25,18,65,47,24,30.01,29.90,17,6,17,0.00
2013-3-28,55,44,37,36,30,24,70,58,41,30.17,30.00,16,5,16,0.00
2013-3-29,60,48,40,32,28,21,66,49,26,30.21,30.12,20,6,20,0.00
2013-3-30,61,48,39,33,28,18,71,49,22,30.23,30.15,15,6,15,0.00
2013-3-31,58,45,31,46,34,26,92,67,30,30.23,29.71,23,8,23,0.08
2013-4-1,61,49,38,46,40,19,93,72,47,29.96,29.69,25,7,25,0.05
2013-4-2,46,39,33,20,14,8,48,37,24,30.14,29.96,26,9,26,0.01
2013-4-3,46,37,33,20,13,6,45,37,24,30.35,30.12,29,10,29,0.00
2013-4-4,51,40,32,31,21,13,69,46,27,30.46,30.20,21,6,21,0.00
2013-4-5,63,47,41,38,32,22,81,58,21,30.21,29.78,14,4,14,0.00
2013-4-6,53,43,35,28,19,8,68,42,21,30.42,30.03,13,5,13,0.00
2013-4-7,54,44,30,44,34,25,84,68,48,30.41,30.11,30,11,30,0.00
2013-4-8,70,55,45,46,43,39,89,67,34,30.18,30.07,24,6,24,0.00
2013-4-9,81,64,50,53,45,34,92,56,23,30.13,30.00,27,7,27,0.00
2013-4-10,70,55,46,53,47,42,98,77,52,30.11,29.89,24,6,24,0.34
2013-4-11,62,51,44,52,46,37,99,84,62,30.18,29.88,16,4,16,0.01
2013-4-12,47,42,40,41,38,29,99,87,53,30.17,29.81,30,9,30,0.43
2013-4-13,61,47,38,41,38,32,99,76,35,30.06,29.79,14,4,14,0.04
2013-4-14,60,50,43,45,38,28,93,65,35,30.32,30.04,23,6,23,0.00
2013-4-15,58,46,38,41,35,30,92,67,37,30.49,30.32,12,3,12,0.00
2013-4-16,62,53,41,52,47,40,99,81,63,30.49,30.22,28,10,28,0.00
2013-4-17,72,59,48,54,41,27,91,57,21,30.40,30.20,24,5,24,0.00
2013-4-18,62,53,43,53,42,31,94,71,33,30.47,30.22,24,8,24,0.00
2013-4-19,71,61,55,64,59,53,99,94,73,30.23,29.78,37,13,37,0.01
2013-4-20,62,54,46,62,42,27,99,68,32,30.34,29.76,28,7,28,0.15
2013-4-21,57,46,37,37,25,16,71,48,22,30.74,30.35,11,5,11,0.00
2013-4-22,55,46,36,39,35,29,86,68,42,30.76,30.61,19,6,19,0.00
2013-4-23,43,42,41,40,37,35,95,83,75,30.61,30.46,14,5,14,0.00
2013-4-24,68,53,44,51,47,42,99,82,47,30.15,29.97,31,12,31,0.00
2013-4-25,68,56,47,51,38,21,97,57,19,30.37,29.96,28,6,28,0.02
2013-4-26,68,52,38,48,38,28,92,62,24,30.51,30.37,11,3,11,0.00
2013-4-27,66,53,42,44,38,29,97,61,27,30.52,30.40,14,3,14,0.00
2013-4-28,67,52,38,51,39,23,99,67,22,30.43,30.33,17,6,17,0.00
2013-4-29,62,55,50,47,44,34,88,67,39,30.36,30.31,14,6,14,0.00
2013-4-30,68,59,38,49,30,13,72,38,19,29.96,29.43,16,5,16,4.61
2013-5-1,69,53,42,49,43,33,93,69,43,30.10,29.95,16,3,16,0.00
2013-5-2,71,55,41,52,45,40,99,72,38,30.08,29.94,15,3,15,0.00
2013-5-3,62,52,49,48,43,40,87,72,48,30.08,30.02,12,4,15,0.00
2013-5-4,67,52,43,48,44,40,99,74,47,29.98,29.88,15,4,15,0.00
2013-5-5,65,51,42,49,43,40,96,74,51,29.91,29.84,8,3,8,0.00
2013-5-6,66,56,45,51,48,42,97,73,55,29.89,29.77,8,4,8,0.00
2013-5-7,74,56,46,59,52,45,99,87,58,29.79,29.72,11,3,11,0.00
2013-5-8,71,59,52,65,57,51,99,94,79,29.75,29.62,22,5,22,0.13
2013-5-9,65,56,51,62,55,51,99,96,83,29.64,29.47,9,2,9,0.56
2013-5-10,77,64,51,63,56,51,99,78,44,29.60,29.53,8,2,8,0.00
2013-5-11,69,61,58,62,60,55,99,95,79,29.52,29.31,21,8,21,0.20
2013-5-12,74,63,54,60,50,31,99,69,24,29.50,29.25,24,6,24,0.01
2013-5-13,62,54,46,38,33,26,68,47,29,29.68,29.50,21,6,21,0.00
2013-5-14,61,49,44,39,36,35,73,63,40,29.70,29.66,8,3,8,0.00
2013-5-15,65,59,43,56,50,35,98,73,34,29.68,29.29,23,9,23,0.00
2013-5-16,84,66,52,60,52,44,99,65,27,29.42,29.29,20,5,20,0.00
2013-5-17,74,63,52,53,46,40,85,58,30,29.81,29.42,14,3,14,0.00
2013-5-18,74,61,49,57,50,46,97,71,40,29.92,29.81,15,5,15,0.00
2013-5-29,68,67,66,63,62,61,86,85,83,29.84,29.82,5,2,9,0.01
2013-5-30,97,78,64,70,65,62,96,68,41,29.86,29.80,17,6,17,0.00
2013-5-31,97,78,68,71,65,62,86,67,38,29.87,29.74,16,5,16,0.00
2013-6-1,89,76,67,70,66,64,94,73,49,29.77,29.67,20,8,20,0.00
2013-6-2,83,72,65,69,65,63,98,80,60,29.68,29.55,26,10,26,0.00
2013-6-3,78,69,64,71,66,61,99,93,77,29.60,29.54,14,5,14,0.00
2013-6-4,77,66,55,61,49,43,91,57,33,29.84,29.60,16,3,16,0.00
2013-6-5,71,64,54,57,54,49,92,71,58,29.95,29.84,4,1,4,0.00
2013-6-6,75,64,53,66,55,48,99,78,41,29.92,29.80,11,4,11,0.00
2013-6-7,61,60,58,60,59,57,99,98,92,29.80,29.42,14,4,14,0.00
2013-6-8,81,67,55,67,61,54,99,84,56,29.81,29.30,17,4,17,0.00
2013-6-9,85,71,59,66,60,56,99,72,44,29.94,29.81,10,3,10,0.00
2013-6-10,77,69,60,68,64,60,99,83,69,29.94,29.90,9,5,9,0.00
2013-6-11,82,72,64,72,66,58,99,85,62,29.93,29.65,20,6,20,0.00
2013-6-12,69,68,67,58,57,56,72,69,67,29.74,29.59,21,11,21,0.00
2013-6-13,64,60,55,60,57,54,99,92,75,29.90,29.56,18,7,18,0.14
2013-6-14,75,63,54,58,56,53,99,80,49,30.01,29.56,14,4,14,0.34
2013-6-15,64,63,62,58,58,57,86,83,79,30.03,29.99,14,6,14,0.00
2013-6-16,82,69,57,67,61,54,97,76,40,30.13,29.92,11,4,11,0.00
2013-6-17,90,76,64,73,66,62,99,73,41,30.10,29.99,15,4,15,0.25
2013-6-18,80,69,62,71,66,61,99,91,68,30.07,29.98,11,2,11,0.19
2013-6-19,84,69,60,62,57,46,98,70,30,30.32,30.02,8,3,8,0.01
2013-6-20,82,69,56,63,57,52,94,68,43,30.43,30.32,15,4,15,0.00
2013-6-21,82,74,58,62,59,54,90,62,43,30.45,30.41,12,4,12,0.00
2013-6-22,86,78,66,66,62,53,99,59,42,30.45,29.44,14,5,14,0.00
2013-6-23,88,76,64,72,67,60,99,76,50,29.87,29.74,19,7,19,0.00
2013-6-24,99,81,71,75,71,65,97,73,43,29.75,29.61,14,5,14,0.00
2013-6-25,86,72,67,72,67,64,94,83,62,29.67,29.60,9,2,9,0.00
2013-6-26,91,79,73,73,69,67,91,73,49,29.50,29.43,10,4,10,0.00
2013-6-27,85,75,70,73,71,68,97,86,66,29.50,29.30,14,3,14,0.00
2013-6-28,86,77,71,74,72,70,97,85,65,29.29,29.17,20,8,20,0.00
2013-6-29,83,75,69,73,70,68,99,86,65,29.39,29.16,22,7,22,0.00
2013-6-30,85,74,70,75,72,69,98,92,70,29.61,29.39,19,6,19,0.00
2013-7-1,81,74,72,76,73,71,99,96,82,29.76,29.59,14,6,14,0.00
2013-7-2,74,74,74,73,72,72,96,96,96,29.76,29.75,9,5,10,0.00
2013-7-3,87,78,71,75,73,70,97,86,65,29.92,29.86,14,7,14,0.00
2013-7-4,91,81,73,76,74,72,99,81,62,29.93,29.84,11,7,11,0.00
2013-7-5,95,84,72,77,74,71,97,71,53,29.88,29.76,17,6,17,0.00
2013-7-6,97,85,75,76,74,71,92,71,45,29.80,29.69,15,5,15,0.00
2013-7-7,95,85,77,78,74,69,91,71,44,29.72,29.60,14,5,14,0.00
2013-7-8,93,82,72,74,70,64,87,70,45,29.71,29.61,13,5,14,0.00
2013-7-9,91,80,72,75,71,68,98,76,49,29.75,29.67,14,4,14,0.00
2013-7-10,88,79,72,77,74,72,99,84,67,29.70,29.48,16,6,16,0.00
2013-7-11,88,79,72,77,74,70,99,85,64,29.59,29.47,11,2,11,0.00
2013-7-12,81,75,70,72,70,68,98,85,73,29.81,29.58,8,2,8,0.00
2013-7-13,78,78,78,71,71,71,79,79,79,29.81,29.80,2,2,2,0.00
2013-7-21,94,83,71,72,69,65,89,64,47,29.96,29.91,5,2,5,0.00
2013-7-22,85,76,71,74,71,68,92,85,66,29.95,29.82,12,2,12,0.00
2013-7-23,88,78,69,76,71,66,92,81,59,29.81,29.54,17,4,17,1.02
2013-7-24,93,79,69,73,68,59,91,70,48,30.23,29.58,11,3,11,1.02
2013-7-25,73,66,64,60,58,54,86,74,62,30.38,30.23,7,3,7,0.12
2013-7-26,90,69,63,70,62,58,89,82,49,30.38,30.28,9,3,9,0.84
2013-7-27,87,75,67,69,65,61,89,72,44,30.40,30.31,12,5,12,0.00
2013-7-28,86,75,69,70,67,64,90,79,57,30.44,30.27,15,2,15,0.00
2013-7-29,91,77,68,75,68,59,92,76,47,30.41,30.27,10,2,10,0.06
2013-7-30,84,74,65,62,59,56,82,60,42,30.48,30.40,13,3,13,0.00
2013-7-31,91,74,63,65,61,58,86,66,36,30.48,30.38,8,2,8,0.00
2013-8-1,81,70,66,67,64,61,91,82,59,30.38,30.17,14,4,14,0.15
2013-8-2,89,76,68,70,65,61,93,72,43,30.25,30.11,11,4,17,0.05
2013-8-3,85,71,68,67,63,59,86,75,53,30.24,30.16,10,4,10,0.05
2013-8-4,87,74,64,65,60,55,88,64,41,30.26,30.15,12,2,12,0.00
2013-8-5,84,71,61,57,54,49,78,57,33,30.39,30.25,12,3,12,0.00
2013-8-6,84,70,58,66,58,54,90,68,43,30.48,30.37,15,4,15,0.00
2013-8-7,80,70,60,65,61,56,90,73,47,30.50,30.43,14,5,14,0.00
2013-8-8,84,75,69,71,68,65,88,80,65,30.43,30.35,18,8,18,0.00
2013-8-9,82,76,73,74,71,69,93,87,74,30.36,30.12,24,7,24,0.17
2013-8-10,87,77,68,72,65,60,93,69,43,30.37,30.15,13,4,13,0.01
2013-8-11,89,73,63,61,57,52,75,59,34,30.44,30.35,86,2,86,0.00
2013-8-12,84,72,68,72,66,61,93,82,63,30.37,30.26,8,2,8,0.06
2013-8-13,73,70,66,71,68,64,95,94,93,30.27,30.14,8,2,8,0.06
2013-8-14,84,71,64,67,57,52,94,64,41,30.21,29.91,13,3,13,0.07
2013-8-15,85,71,61,58,54,46,80,58,31,30.34,30.21,10,3,10,0.00
2013-8-16,89,71,58,65,57,52,92,66,33,30.41,30.30,9,3,9,0.00
2013-8-17,90,72,60,63,59,52,91,67,31,30.48,30.40,8,2,8,0.00
2013-8-18,84,69,61,66,60,56,88,74,50,30.47,30.32,7,1,7,0.01
2013-8-19,81,71,60,67,61,55,86,71,52,30.32,30.21,12,4,12,0.00
2013-8-20,94,78,68,68,64,58,88,66,35,30.32,30.22,8,3,8,0.00
2013-8-21,96,78,65,70,66,61,94,71,35,30.37,30.25,13,3,13,0.00
2013-8-22,86,73,70,75,69,66,94,87,65,30.25,30.06,16,5,16,1.12
2013-8-23,83,74,70,69,67,63,94,80,56,30.16,30.04,8,2,8,0.00
2013-8-24,87,71,60,60,57,54,90,63,35,30.31,30.05,4,2,4,0.00
2013-8-25,90,71,57,64,58,55,94,68,33,30.33,30.19,8,3,8,0.00
2013-8-26,87,74,68,69,65,57,92,74,49,30.19,29.86,13,4,13,0.14
2013-8-27,90,75,69,74,69,66,95,84,55,29.87,29.75,10,3,10,0.37
2013-8-28,90,75,66,74,69,65,96,82,54,29.86,29.80,11,3,11,0.00
2013-8-29,85,73,66,69,66,61,94,80,56,30.01,29.85,10,2,10,0.00
2013-8-30,88,72,63,70,65,59,92,79,55,29.98,29.82,13,4,13,0.00
2013-8-31,86,76,71,72,70,68,91,81,62,29.83,29.76,17,7,17,0.00
2013-9-1,80,77,73,73,72,70,95,84,78,29.82,29.76,14,6,14,0.31
2013-9-2,86,75,72,72,71,63,92,87,46,30.15,29.82,11,4,11,0.31
2013-9-3,87,73,68,75,68,59,96,84,56,30.04,29.87,12,2,12,0.24
2013-9-4,87,74,64,63,60,55,82,64,39,30.15,30.03,12,3,12,0.00
2013-9-5,88,72,64,64,57,46,87,60,34,30.30,30.08,12,3,12,0.00
2013-9-6,80,66,54,51,48,41,83,55,28,30.42,30.30,7,2,7,0.00
2013-9-7,82,67,52,59,52,47,86,63,31,30.30,30.08,14,4,14,0.00
2013-9-8,90,73,62,67,58,47,84,62,34,30.26,29.98,14,4,14,0.00
2013-9-9,78,64,52,54,49,44,85,59,35,30.42,30.25,10,3,10,0.00
2013-9-10,80,70,59,70,65,54,95,84,72,30.35,30.21,21,7,21,0.13
2013-9-11,95,80,71,76,71,69,93,76,53,30.28,30.17,22,7,22,0.00
2013-9-12,86,76,72,73,70,69,91,83,64,30.17,30.03,20,8,20,0.00
2013-9-13,85,68,62,71,61,54,96,77,56,29.97,29.79,8,3,8,0.04
2013-9-14,78,65,56,55,52,48,83,65,44,30.26,29.97,10,3,10,0.00
2013-9-15,77,64,55,55,50,42,87,65,30,30.37,30.25,8,2,8,0.00
2013-9-16,82,65,57,60,55,43,93,73,43,30.41,30.20,8,3,8,0.00
2013-9-17,73,59,50,44,41,39,71,54,34,30.59,30.41,8,3,8,0.00
2013-9-18,80,60,44,55,48,42,95,69,32,30.52,30.36,6,3,6,0.00
2013-9-19,83,66,53,58,54,47,92,68,30,30.36,30.25,10,4,10,0.00
2013-9-20,84,65,50,65,57,50,99,78,41,30.26,30.18,13,3,13,0.00
2013-9-21,80,67,54,68,62,53,99,86,64,30.20,29.87,23,6,23,0.00
2013-9-22,80,67,56,67,57,45,97,73,43,30.05,29.81,19,4,19,0.64
2013-9-23,74,61,52,49,46,42,75,59,37,30.18,30.04,8,3,8,0.00
2013-9-24,76,60,50,51,46,42,80,62,38,30.20,30.02,17,4,17,0.00
2013-9-25,79,62,52,56,52,49,93,73,36,30.10,29.87,4,2,4,0.00
2013-9-26,78,63,51,57,54,49,95,73,43,30.10,29.82,9,2,9,0.00
2013-9-27,74,61,50,58,53,49,99,78,49,30.25,30.09,5,2,5,0.00
2013-9-28,84,65,55,60,56,53,95,74,41,30.31,30.23,4,1,4,0.00
2013-9-29,80,62,51,57,51,39,99,74,26,30.24,30.07,8,2,8,0.00
2013-9-30,82,65,52,61,56,49,97,77,38,30.07,29.85,8,2,8,0.00
2013-10-1,85,67,56,60,57,53,95,73,39,29.98,29.88,11,2,11,0.00
2013-10-2,86,70,-40,64,60,-46,97,73,44,29.99,29.89,15,3,15,0.00
2013-10-3,82,68,59,61,56,13,95,68,36,30.11,29.99,8,2,8,0.00
2013-10-4,84,69,59,70,63,56,97,83,58,30.06,29.97,7,2,7,0.00
2013-10-5,82,67,63,66,62,61,97,85,57,30.09,30.00,7,2,7,0.00
2013-10-6,66,64,63,66,63,62,99,96,93,30.13,30.05,14,3,14,0.04
2013-10-7,78,70,66,70,68,66,99,94,74,30.05,29.89,27,5,27,0.01
2013-10-8,78,64,58,54,48,43,77,58,33,30.31,29.94,6,2,6,0.00
2013-10-9,70,61,56,53,49,43,79,66,53,30.38,30.29,14,4,14,0.00
2013-10-10,68,61,56,60,55,51,86,82,73,30.29,30.08,11,3,11,0.01
2013-10-11,72,64,61,63,59,50,89,82,65,30.09,29.95,8,2,8,0.00
2013-10-12,77,65,60,58,52,45,84,65,38,30.28,30.07,14,4,18,0.00
2013-10-13,61,61,61,56,56,56,82,82,82,30.27,30.27,4,4,9,0.00
2013-10-16,69,62,59,61,59,58,96,88,70,29.93,29.86,5,2,5,0.00
2013-10-17,82,65,59,65,61,58,97,87,58,29.86,29.66,12,3,12,0.00
2013-10-18,73,65,56,63,51,44,94,64,37,29.90,29.59,20,7,20,0.00
2013-10-19,70,56,44,56,47,41,96,75,38,29.93,29.69,15,3,15,0.02
2013-10-20,69,60,54,58,44,37,98,59,34,29.97,29.65,18,5,18,0.04
2013-10-21,78,60,47,47,43,40,89,56,29,29.97,29.82,11,2,11,0.00
2013-10-22,74,57,47,56,48,44,99,74,40,29.82,29.51,17,3,17,0.00
2013-10-23,54,51,49,47,39,35,77,63,51,29.62,29.41,10,2,10,0.01
2013-10-24,60,51,45,41,34,28,76,54,30,29.78,29.51,18,6,20,0.00
2013-10-25,58,50,44,40,34,32,75,57,40,30.01,29.78,22,5,22,0.00
2013-10-26,59,50,41,40,34,25,78,57,31,30.01,29.72,24,7,24,0.00
2013-10-27,66,54,45,39,36,32,71,51,31,29.91,29.65,17,5,17,0.00
2013-10-28,67,54,42,40,36,31,73,51,31,30.13,29.91,15,4,15,0.00
2013-10-29,61,48,37,39,35,30,89,61,35,30.22,30.12,8,2,8,0.00
2013-10-30,63,51,38,52,44,34,95,79,54,30.16,30.00,9,2,9,0.00
2013-10-31,70,59,49,62,56,48,99,88,71,30.05,29.65,24,7,24,0.00
2013-11-1,68,64,59,63,60,56,94,87,71,29.66,29.37,35,10,35,0.06
2013-11-2,74,60,56,58,51,44,93,74,48,30.38,29.44,12,2,12,0.00
2013-11-3,65,50,39,46,37,25,83,62,35,30.68,30.02,13,4,13,0.00
2013-11-4,57,42,33,29,24,17,69,51,24,30.94,30.68,11,3,11,0.00
2013-11-5,64,48,36,40,36,27,86,65,39,30.94,30.77,10,3,10,0.00
2013-11-6,67,51,40,55,44,39,99,81,46,30.77,30.35,14,5,14,0.00
2013-11-7,65,61,56,61,59,55,98,93,83,30.35,30.00,21,7,21,0.12
2013-11-8,60,48,42,37,31,28,74,52,35,30.44,30.16,23,6,23,0.00
2013-11-9,53,45,41,38,30,22,69,56,33,30.52,30.29,14,4,14,0.00
2013-11-10,65,53,48,43,36,31,73,54,30,30.28,30.03,33,12,33,0.01
2013-11-11,58,50,45,39,32,23,63,50,29,30.42,30.22,22,7,22,0.00
2013-11-12,52,40,32,39,29,20,95,65,54,30.51,30.16,16,5,16,0.09
2013-11-13,49,37,30,24,20,12,68,52,27,30.59,30.48,11,4,11,0.00
2013-11-14,59,45,31,23,18,11,60,35,21,30.50,30.40,14,7,14,0.00
2013-11-15,63,49,39,42,33,22,94,57,29,30.51,30.42,16,6,16,0.00
2013-11-16,69,52,43,50,41,32,90,67,46,30.58,29.90,10,2,10,0.00
2013-11-17,63,56,43,58,53,40,94,89,82,29.90,29.44,49,5,49,0.01
2013-11-18,71,61,52,60,45,31,94,60,29,29.44,29.21,27,8,27,0.27
2013-11-19,61,47,36,34,30,23,66,51,34,29.94,29.34,21,5,21,0.00
2013-11-20,53,40,33,24,21,14,62,48,26,30.22,29.94,12,4,12,0.00
2013-11-21,56,41,29,40,30,20,78,65,43,30.23,29.70,14,3,14,0.00
2013-11-22,55,51,46,51,46,40,91,84,76,29.70,29.18,14,4,14,0.07
2013-11-23,58,48,43,49,30,19,85,53,33,29.28,29.16,17,6,17,0.00
2013-11-24,44,30,26,22,8,2,57,41,25,30.31,29.19,27,8,27,0.01
2013-11-25,42,31,24,17,13,7,58,46,31,30.46,30.31,13,4,15,0.00
2013-11-26,53,40,35,51,26,15,93,59,35,30.34,29.86,18,5,18,0.21
2013-11-27,64,52,37,60,49,26,93,88,69,29.86,29.27,38,13,38,1.59
2013-11-28,45,35,31,26,17,10,64,48,33,30.48,29.65,29,8,29,0.00
2013-11-29,50,36,29,26,19,12,68,51,35,30.72,30.46,10,3,10,0.00
2013-11-30,43,34,27,24,16,9,64,50,32,30.76,30.51,12,4,12,0.00
2013-12-2,50,41,36,41,38,3,94,87,71,30.00,29.88,5,2,5,0.00
2013-12-3,59,44,38,42,37,32,93,77,44,29.99,29.86,11,2,11,0.00
2013-12-4,59,44,34,44,36,28,86,73,46,30.16,29.99,9,2,9,0.00
2013-12-5,64,56,47,56,51,43,91,84,72,30.16,26.99,19,6,19,0.00
2013-12-6,59,56,50,57,54,48,93,91,91,29.95,29.88,17,7,17,0.01
2013-12-7,49,37,0,49,23,17,64,55,49,30.13,0.00,11,4,11,0.52
2013-12-8,35,33,31,29,20,18,84,59,50,30.23,30.03,13,4,13,0.01
2013-12-9,46,39,33,44,36,29,92,89,83,30.04,29.56,17,6,17,0.17
2013-12-10,39,35,33,33,27,13,85,73,43,29.73,29.42,27,8,27,0.15
2013-12-11,41,32,26,16,13,8,55,44,32,29.93,29.73,25,8,25,0.01
2013-12-12,38,28,22,16,7,-2,55,42,27,29.96,29.26,20,4,20,0.00
2013-12-13,39,31,23,20,9,-2,63,39,31,29.98,29.72,33,9,33,0.00
2013-12-14,39,28,23,37,20,11,93,74,51,30.16,29.51,17,6,17,0.13
2013-12-15,43,37,32,41,30,18,94,77,53,29.51,29.05,24,8,24,0.77
2013-12-16,38,31,22,19,10,3,56,42,27,29.86,29.44,26,7,26,0.01
2013-12-17,35,26,20,31,19,7,88,74,49,29.87,29.53,13,3,13,0.00
2013-12-18,42,32,24,26,20,17,82,64,46,29.79,29.52,17,3,17,0.21
2013-12-19,52,39,26,32,22,15,68,52,31,29.80,29.66,26,6,26,0.02
2013-12-20,56,46,0,44,34,25,85,65,43,29.92,29.78,17,7,17,0.00
2013-12-21,62,54,47,52,46,43,89,77,56,29.82,29.72,25,9,25,0.00
2013-12-22,63,60,57,56,53,50,87,79,65,29.80,29.63,36,14,36,0.01
2013-12-23,60,53,41,54,49,37,92,87,80,29.92,29.68,14,5,14,0.27
2013-12-24,50,37,30,37,23,16,86,56,33,30.09,29.86,13,4,13,0.00
2013-12-25,36,27,22,17,6,-1,59,42,27,30.34,30.08,15,3,15,0.00
2013-12-26,42,33,26,32,22,10,74,64,50,30.26,29.94,20,3,20,0.00
2013-12-27,48,36,30,24,20,12,68,51,26,30.14,30.06,19,7,19,0.00
2013-12-28,58,43,30,34,26,12,75,54,28,30.08,29.87,29,8,29,0.00
2013-12-29,54,44,41,52,37,28,93,77,51,29.87,29.15,16,6,19,0.86
2013-12-30,45,37,23,38,27,6,90,68,46,29.99,29.45,17,6,18,0.00
2013-12-31,39,28,20,18,10,4,56,47,34,30.05,29.86,23,6,23,0.00
2014-1-1,41,30,0,19,11,4,58,45,35,30.13,29.62,17,5,17,1.15
2014-1-2,32,29,0,26,23,13,86,78,55,29.92,29.31,16,7,16,0.00